sensor_id;sensor_type;location;lat;lon;timestamp;temperature;humidity
20045;DHT22;10183;47.808;9.476;2022-12-18T00:00:47;-4.40;99.90
20045;DHT22;10183;47.808;9.476;2022-12-18T00:03:14;-4.50;99.90
20045;DHT22;10183;47.808;9.476;2022-12-18T00:05:50;-4.40;99.90
20045;DHT22;10183;47.808;9.476;2022-12-18T00:08:17;-4.40;99.90
20045;DHT22;10183;47.808;9.476;2022-12-18T00:10:44;-4.40;99.90
20045;DHT22;10183;47.808;9.476;2022-12-18T00:13:11;-4.40;99.90
20045;DHT22;10183;47.808;9.476;2022-12-18T00:15:38;-4.50;99.90
20045;DHT22;10183;47.808;9.476;2022-12-18T00:18:05;-4.50;99.90
20045;DHT22;10183;47.808;9.476;2022-12-18T00:20:38;-4.60;99.90
20045;DHT22;10183;47.808;9.476;2022-12-18T00:23:06;-4.60;99.90
20045;DHT22;10183;47.808;9.476;2022-12-18T00:25:34;-4.60;99.90
20045;DHT22;10183;47.808;9.476;2022-12-18T00:28:01;-4.70;99.90
20045;DHT22;10183;47.808;9.476;2022-12-18T00:30:27;-4.70;99.90
20045;DHT22;10183;47.808;9.476;2022-12-18T00:32:54;-4.70;99.90
20045;DHT22;10183;47.808;9.476;2022-12-18T00:35:20;-4.60;99.90
20045;DHT22;10183;47.808;9.476;2022-12-18T00:37:46;-4.60;99.90
20045;DHT22;10183;47.808;9.476;2022-12-18T00:40:12;-4.70;99.90
20045;DHT22;10183;47.808;9.476;2022-12-18T00:42:38;-4.70;99.90
20045;DHT22;10183;47.808;9.476;2022-12-18T00:45:30;-4.60;99.90
20045;DHT22;10183;47.808;9.476;2022-12-18T00:47:57;-4.50;99.90
20045;DHT22;10183;47.808;9.476;2022-12-18T00:50:24;-4.50;99.90
20045;DHT22;10183;47.808;9.476;2022-12-18T00:52:51;-4.50;99.90
20045;DHT22;10183;47.808;9.476;2022-12-18T00:55:17;-4.50;99.90
20045;DHT22;10183;47.808;9.476;2022-12-18T00:57:44;-4.50;99.90
20045;DHT22;10183;47.808;9.476;2022-12-18T01:00:13;-4.50;99.90
20045;DHT22;10183;47.808;9.476;2022-12-18T01:02:40;-4.40;99.90
20045;DHT22;10183;47.808;9.476;2022-12-18T01:05:09;-4.40;99.90
20045;DHT22;10183;47.808;9.476;2022-12-18T01:07:35;-4.50;99.90
20045;DHT22;10183;47.808;9.476;2022-12-18T01:10:01;-4.50;99.90
20045;DHT22;10183;47.808;9.476;2022-12-18T01:12:27;-4.60;99.90
20045;DHT22;10183;47.808;9.476;2022-12-18T01:14:54;-4.60;99.90
20045;DHT22;10183;47.808;9.476;2022-12-18T01:17:20;-4.60;99.90
20045;DHT22;10183;47.808;9.476;2022-12-18T01:19:46;-4.60;99.90
20045;DHT22;10183;47.808;9.476;2022-12-18T01:22:12;-4.60;99.90
20045;DHT22;10183;47.808;9.476;2022-12-18T01:24:38;-4.60;99.90
20045;DHT22;10183;47.808;9.476;2022-12-18T01:27:05;-4.60;99.90
20045;DHT22;10183;47.808;9.476;2022-12-18T01:29:31;-4.60;99.90
20045;DHT22;10183;47.808;9.476;2022-12-18T01:31:57;-4.60;99.90
20045;DHT22;10183;47.808;9.476;2022-12-18T01:34:24;-4.50;99.90
20045;DHT22;10183;47.808;9.476;2022-12-18T01:36:50;-4.50;99.90
20045;DHT22;10183;47.808;9.476;2022-12-18T01:39:19;-4.50;99.90
20045;DHT22;10183;47.808;9.476;2022-12-18T01:41:46;-4.50;99.90
20045;DHT22;10183;47.808;9.476;2022-12-18T01:49:54;-4.70;99.90
20045;DHT22;10183;47.808;9.476;2022-12-18T01:52:21;-4.70;99.90
20045;DHT22;10183;47.808;9.476;2022-12-18T01:54:49;-4.70;99.90
20045;DHT22;10183;47.808;9.476;2022-12-18T01:57:17;-4.60;99.90
20045;DHT22;10183;47.808;9.476;2022-12-18T01:59:45;-4.60;99.90
20045;DHT22;10183;47.808;9.476;2022-12-18T02:02:15;-4.70;99.90
20045;DHT22;10183;47.808;9.476;2022-12-18T02:04:42;-4.80;99.90
20045;DHT22;10183;47.808;9.476;2022-12-18T02:07:23;-4.70;99.90
20045;DHT22;10183;47.808;9.476;2022-12-18T02:15:44;-4.70;99.90
20045;DHT22;10183;47.808;9.476;2022-12-18T02:18:35;-4.70;99.90
20045;DHT22;10183;47.808;9.476;2022-12-18T02:24:08;-4.70;99.90
20045;DHT22;10183;47.808;9.476;2022-12-18T02:26:50;-4.70;99.90
20045;DHT22;10183;47.808;9.476;2022-12-18T02:29:21;-4.60;99.90
20045;DHT22;10183;47.808;9.476;2022-12-18T02:31:54;-4.60;99.90
20045;DHT22;10183;47.808;9.476;2022-12-18T02:34:25;-4.50;99.90
20045;DHT22;10183;47.808;9.476;2022-12-18T02:36:53;-4.60;99.90
20045;DHT22;10183;47.808;9.476;2022-12-18T02:39:21;-4.60;99.90
20045;DHT22;10183;47.808;9.476;2022-12-18T02:41:48;-4.60;99.90
20045;DHT22;10183;47.808;9.476;2022-12-18T02:44:14;-4.50;99.90
20045;DHT22;10183;47.808;9.476;2022-12-18T02:46:49;-4.50;99.90
20045;DHT22;10183;47.808;9.476;2022-12-18T03:00:33;-4.60;99.90
20045;DHT22;10183;47.808;9.476;2022-12-18T03:03:12;-4.60;99.90
20045;DHT22;10183;47.808;9.476;2022-12-18T03:05:57;-4.70;99.90
20045;DHT22;10183;47.808;9.476;2022-12-18T03:08:29;-4.60;99.90
20045;DHT22;10183;47.808;9.476;2022-12-18T03:11:11;-4.70;99.90
20045;DHT22;10183;47.808;9.476;2022-12-18T03:13:45;-4.60;99.90
20045;DHT22;10183;47.808;9.476;2022-12-18T03:16:21;-4.60;99.90
20045;DHT22;10183;47.808;9.476;2022-12-18T03:18:54;-4.60;99.90
20045;DHT22;10183;47.808;9.476;2022-12-18T03:21:32;-4.50;99.90
20045;DHT22;10183;47.808;9.476;2022-12-18T03:24:00;-4.50;99.90
20045;DHT22;10183;47.808;9.476;2022-12-18T03:26:28;-4.50;99.90
20045;DHT22;10183;47.808;9.476;2022-12-18T03:29:12;-4.50;99.90
20045;DHT22;10183;47.808;9.476;2022-12-18T03:31:45;-4.40;99.90
20045;DHT22;10183;47.808;9.476;2022-12-18T03:34:19;-4.40;99.90
20045;DHT22;10183;47.808;9.476;2022-12-18T03:36:47;-4.40;99.90
20045;DHT22;10183;47.808;9.476;2022-12-18T03:39:13;-4.30;99.90
20045;DHT22;10183;47.808;9.476;2022-12-18T03:41:52;-4.40;99.90
20045;DHT22;10183;47.808;9.476;2022-12-18T03:44:29;-4.50;99.90
20045;DHT22;10183;47.808;9.476;2022-12-18T03:49:47;-4.60;99.90
20045;DHT22;10183;47.808;9.476;2022-12-18T03:52:26;-4.60;99.90
20045;DHT22;10183;47.808;9.476;2022-12-18T03:54:55;-4.50;99.90
20045;DHT22;10183;47.808;9.476;2022-12-18T03:57:25;-4.60;99.90
20045;DHT22;10183;47.808;9.476;2022-12-18T04:00:10;-4.60;99.90
20045;DHT22;10183;47.808;9.476;2022-12-18T04:02:40;-4.50;99.90
20045;DHT22;10183;47.808;9.476;2022-12-18T04:05:10;-4.50;99.90
20045;DHT22;10183;47.808;9.476;2022-12-18T04:07:37;-4.60;99.90
20045;DHT22;10183;47.808;9.476;2022-12-18T04:10:06;-4.60;99.90
20045;DHT22;10183;47.808;9.476;2022-12-18T04:12:33;-4.70;99.90
20045;DHT22;10183;47.808;9.476;2022-12-18T04:14:59;-4.70;99.90
20045;DHT22;10183;47.808;9.476;2022-12-18T04:17:25;-4.80;99.90
20045;DHT22;10183;47.808;9.476;2022-12-18T04:19:51;-4.80;99.90
20045;DHT22;10183;47.808;9.476;2022-12-18T04:22:17;-4.80;99.90
20045;DHT22;10183;47.808;9.476;2022-12-18T04:24:43;-4.90;99.90
20045;DHT22;10183;47.808;9.476;2022-12-18T04:27:10;-4.90;99.90
20045;DHT22;10183;47.808;9.476;2022-12-18T04:29:36;-4.90;99.90
20045;DHT22;10183;47.808;9.476;2022-12-18T04:32:02;-4.80;99.90
20045;DHT22;10183;47.808;9.476;2022-12-18T04:34:28;-4.80;99.90
20045;DHT22;10183;47.808;9.476;2022-12-18T04:36:54;-4.80;99.90
20045;DHT22;10183;47.808;9.476;2022-12-18T04:39:20;-4.80;99.90
20045;DHT22;10183;47.808;9.476;2022-12-18T04:41:47;-4.70;99.90
20045;DHT22;10183;47.808;9.476;2022-12-18T04:44:13;-4.80;99.90
20045;DHT22;10183;47.808;9.476;2022-12-18T04:46:39;-4.70;99.90
20045;DHT22;10183;47.808;9.476;2022-12-18T04:49:05;-4.70;99.90
20045;DHT22;10183;47.808;9.476;2022-12-18T04:51:32;-4.70;99.90
20045;DHT22;10183;47.808;9.476;2022-12-18T04:53:58;-4.70;99.90
20045;DHT22;10183;47.808;9.476;2022-12-18T04:56:24;-4.70;99.90
20045;DHT22;10183;47.808;9.476;2022-12-18T04:58:50;-4.70;99.90
20045;DHT22;10183;47.808;9.476;2022-12-18T05:01:17;-4.70;99.90
20045;DHT22;10183;47.808;9.476;2022-12-18T05:03:44;-4.70;99.90
20045;DHT22;10183;47.808;9.476;2022-12-18T05:06:10;-4.70;99.90
20045;DHT22;10183;47.808;9.476;2022-12-18T05:08:36;-4.60;99.90
20045;DHT22;10183;47.808;9.476;2022-12-18T05:11:07;-4.60;99.90
20045;DHT22;10183;47.808;9.476;2022-12-18T05:13:34;-4.60;99.90
20045;DHT22;10183;47.808;9.476;2022-12-18T05:16:01;-4.50;99.90
20045;DHT22;10183;47.808;9.476;2022-12-18T05:18:28;-4.60;99.90
20045;DHT22;10183;47.808;9.476;2022-12-18T05:20:55;-4.60;99.90
20045;DHT22;10183;47.808;9.476;2022-12-18T05:23:23;-4.70;99.90
20045;DHT22;10183;47.808;9.476;2022-12-18T05:25:56;-4.60;99.90
20045;DHT22;10183;47.808;9.476;2022-12-18T05:28:24;-4.70;99.90
20045;DHT22;10183;47.808;9.476;2022-12-18T05:30:55;-4.70;99.90
20045;DHT22;10183;47.808;9.476;2022-12-18T05:33:22;-4.80;99.90
20045;DHT22;10183;47.808;9.476;2022-12-18T05:35:54;-4.80;99.90
20045;DHT22;10183;47.808;9.476;2022-12-18T05:38:22;-4.80;99.90
20045;DHT22;10183;47.808;9.476;2022-12-18T05:40:49;-4.80;99.90
20045;DHT22;10183;47.808;9.476;2022-12-18T05:43:15;-4.80;99.90
20045;DHT22;10183;47.808;9.476;2022-12-18T05:45:42;-4.70;99.90
20045;DHT22;10183;47.808;9.476;2022-12-18T05:48:09;-4.80;99.90
20045;DHT22;10183;47.808;9.476;2022-12-18T05:50:40;-4.80;99.90
20045;DHT22;10183;47.808;9.476;2022-12-18T05:53:07;-4.80;99.90
20045;DHT22;10183;47.808;9.476;2022-12-18T05:55:35;-4.70;99.90
20045;DHT22;10183;47.808;9.476;2022-12-18T05:58:03;-4.70;99.90
20045;DHT22;10183;47.808;9.476;2022-12-18T06:00:30;-4.70;99.90
20045;DHT22;10183;47.808;9.476;2022-12-18T06:02:58;-4.80;99.90
20045;DHT22;10183;47.808;9.476;2022-12-18T06:05:25;-4.90;99.90
20045;DHT22;10183;47.808;9.476;2022-12-18T06:07:51;-4.90;99.90
20045;DHT22;10183;47.808;9.476;2022-12-18T06:10:18;-5.00;99.90
20045;DHT22;10183;47.808;9.476;2022-12-18T06:12:44;-5.20;99.90
20045;DHT22;10183;47.808;9.476;2022-12-18T06:15:10;-5.20;99.90
20045;DHT22;10183;47.808;9.476;2022-12-18T06:17:37;-5.10;99.90
20045;DHT22;10183;47.808;9.476;2022-12-18T06:20:04;-5.10;99.90
20045;DHT22;10183;47.808;9.476;2022-12-18T06:22:31;-5.20;99.90
20045;DHT22;10183;47.808;9.476;2022-12-18T06:24:57;-5.20;99.90
20045;DHT22;10183;47.808;9.476;2022-12-18T06:27:25;-5.30;99.90
20045;DHT22;10183;47.808;9.476;2022-12-18T06:29:51;-5.20;99.90
20045;DHT22;10183;47.808;9.476;2022-12-18T06:32:17;-5.20;99.90
20045;DHT22;10183;47.808;9.476;2022-12-18T06:34:43;-5.20;99.90
20045;DHT22;10183;47.808;9.476;2022-12-18T06:37:10;-5.10;99.90
20045;DHT22;10183;47.808;9.476;2022-12-18T06:39:36;-5.00;99.90
20045;DHT22;10183;47.808;9.476;2022-12-18T06:42:03;-5.00;99.90
20045;DHT22;10183;47.808;9.476;2022-12-18T06:44:29;-5.30;99.90
20045;DHT22;10183;47.808;9.476;2022-12-18T06:46:55;-5.20;99.90
20045;DHT22;10183;47.808;9.476;2022-12-18T06:49:21;-5.10;99.90
20045;DHT22;10183;47.808;9.476;2022-12-18T06:51:47;-5.00;99.90
20045;DHT22;10183;47.808;9.476;2022-12-18T06:54:13;-4.80;99.90
20045;DHT22;10183;47.808;9.476;2022-12-18T06:56:40;-4.80;99.90
20045;DHT22;10183;47.808;9.476;2022-12-18T06:59:06;-4.80;99.90
20045;DHT22;10183;47.808;9.476;2022-12-18T07:01:32;-4.90;99.90
20045;DHT22;10183;47.808;9.476;2022-12-18T07:03:59;-4.90;99.90
20045;DHT22;10183;47.808;9.476;2022-12-18T07:06:25;-5.00;99.90
20045;DHT22;10183;47.808;9.476;2022-12-18T07:08:53;-5.10;99.90
20045;DHT22;10183;47.808;9.476;2022-12-18T07:11:19;-5.30;99.90
20045;DHT22;10183;47.808;9.476;2022-12-18T07:13:46;-5.50;99.90
20045;DHT22;10183;47.808;9.476;2022-12-18T07:16:15;-5.50;99.90
20045;DHT22;10183;47.808;9.476;2022-12-18T07:18:41;-5.40;99.90
20045;DHT22;10183;47.808;9.476;2022-12-18T07:21:14;-5.30;99.90
20045;DHT22;10183;47.808;9.476;2022-12-18T07:23:41;-5.20;99.90
20045;DHT22;10183;47.808;9.476;2022-12-18T07:26:10;-5.10;99.90
20045;DHT22;10183;47.808;9.476;2022-12-18T07:28:37;-5.00;99.90
20045;DHT22;10183;47.808;9.476;2022-12-18T07:31:09;-4.90;99.90
20045;DHT22;10183;47.808;9.476;2022-12-18T07:33:35;-5.20;99.90
20045;DHT22;10183;47.808;9.476;2022-12-18T07:36:03;-5.00;99.90
20045;DHT22;10183;47.808;9.476;2022-12-18T07:38:31;-5.30;99.90
20045;DHT22;10183;47.808;9.476;2022-12-18T07:41:05;-5.10;99.90
20045;DHT22;10183;47.808;9.476;2022-12-18T07:43:32;-4.90;99.90
20045;DHT22;10183;47.808;9.476;2022-12-18T07:45:58;-4.80;99.90
20045;DHT22;10183;47.808;9.476;2022-12-18T07:48:24;-4.90;99.90
20045;DHT22;10183;47.808;9.476;2022-12-18T07:50:51;-4.80;99.90
20045;DHT22;10183;47.808;9.476;2022-12-18T07:53:17;-4.70;99.90
20045;DHT22;10183;47.808;9.476;2022-12-18T07:55:43;-5.00;99.90
20045;DHT22;10183;47.808;9.476;2022-12-18T07:58:09;-4.90;99.90
20045;DHT22;10183;47.808;9.476;2022-12-18T08:00:35;-4.80;99.90
20045;DHT22;10183;47.808;9.476;2022-12-18T08:03:02;-5.10;99.90
20045;DHT22;10183;47.808;9.476;2022-12-18T08:05:28;-5.30;99.90
20045;DHT22;10183;47.808;9.476;2022-12-18T08:07:54;-5.20;99.90
20045;DHT22;10183;47.808;9.476;2022-12-18T08:10:21;-5.00;99.90
20045;DHT22;10183;47.808;9.476;2022-12-18T08:12:51;-5.20;99.90
20045;DHT22;10183;47.808;9.476;2022-12-18T08:15:17;-5.10;99.90
20045;DHT22;10183;47.808;9.476;2022-12-18T08:17:43;-4.90;99.90
20045;DHT22;10183;47.808;9.476;2022-12-18T08:20:10;-5.10;99.90
20045;DHT22;10183;47.808;9.476;2022-12-18T08:22:36;-4.80;99.90
20045;DHT22;10183;47.808;9.476;2022-12-18T08:25:03;-4.60;99.90
20045;DHT22;10183;47.808;9.476;2022-12-18T08:27:30;-5.10;99.90
20045;DHT22;10183;47.808;9.476;2022-12-18T08:29:57;-5.00;99.90
20045;DHT22;10183;47.808;9.476;2022-12-18T08:32:25;-5.30;99.90
20045;DHT22;10183;47.808;9.476;2022-12-18T08:34:53;-5.10;99.90
20045;DHT22;10183;47.808;9.476;2022-12-18T08:37:19;-5.10;99.90
20045;DHT22;10183;47.808;9.476;2022-12-18T08:39:46;-5.00;99.90
20045;DHT22;10183;47.808;9.476;2022-12-18T08:42:12;-5.10;99.90
20045;DHT22;10183;47.808;9.476;2022-12-18T08:44:57;-5.10;99.90
20045;DHT22;10183;47.808;9.476;2022-12-18T08:47:23;-5.20;99.90
20045;DHT22;10183;47.808;9.476;2022-12-18T08:49:49;-4.80;99.90
20045;DHT22;10183;47.808;9.476;2022-12-18T08:52:15;-4.40;99.90
20045;DHT22;10183;47.808;9.476;2022-12-18T08:54:42;-4.20;99.90
20045;DHT22;10183;47.808;9.476;2022-12-18T08:57:08;-4.20;99.90
20045;DHT22;10183;47.808;9.476;2022-12-18T08:59:34;-4.10;99.90
20045;DHT22;10183;47.808;9.476;2022-12-18T09:02:01;-4.10;99.90
20045;DHT22;10183;47.808;9.476;2022-12-18T09:04:27;-4.00;99.90
20045;DHT22;10183;47.808;9.476;2022-12-18T09:06:53;-4.10;99.90
20045;DHT22;10183;47.808;9.476;2022-12-18T09:09:20;-3.80;99.90
20045;DHT22;10183;47.808;9.476;2022-12-18T09:11:47;-3.60;99.90
20045;DHT22;10183;47.808;9.476;2022-12-18T09:14:13;-3.30;99.90
20045;DHT22;10183;47.808;9.476;2022-12-18T09:16:39;-3.20;99.90
20045;DHT22;10183;47.808;9.476;2022-12-18T09:19:05;-3.10;99.90
20045;DHT22;10183;47.808;9.476;2022-12-18T09:21:33;-3.00;99.90
20045;DHT22;10183;47.808;9.476;2022-12-18T09:24:00;-2.80;99.90
20045;DHT22;10183;47.808;9.476;2022-12-18T09:26:27;-3.40;99.90
20045;DHT22;10183;47.808;9.476;2022-12-18T09:28:53;-3.50;99.90
20045;DHT22;10183;47.808;9.476;2022-12-18T09:31:21;-3.40;99.90
20045;DHT22;10183;47.808;9.476;2022-12-18T09:33:48;-3.40;99.90
20045;DHT22;10183;47.808;9.476;2022-12-18T09:36:15;-3.20;99.90
20045;DHT22;10183;47.808;9.476;2022-12-18T09:38:42;-3.50;99.90
20045;DHT22;10183;47.808;9.476;2022-12-18T09:44:36;-4.00;99.90
20045;DHT22;10183;47.808;9.476;2022-12-18T09:47:18;-3.40;99.90
20045;DHT22;10183;47.808;9.476;2022-12-18T09:49:48;-3.40;99.90
20045;DHT22;10183;47.808;9.476;2022-12-18T09:52:36;-3.40;99.90
20045;DHT22;10183;47.808;9.476;2022-12-18T09:55:20;-3.50;99.90
20045;DHT22;10183;47.808;9.476;2022-12-18T09:57:53;-3.20;99.90
20045;DHT22;10183;47.808;9.476;2022-12-18T10:00:23;-3.30;99.90
20045;DHT22;10183;47.808;9.476;2022-12-18T10:02:51;-3.70;99.90
20045;DHT22;10183;47.808;9.476;2022-12-18T10:05:38;-3.30;99.90
20045;DHT22;10183;47.808;9.476;2022-12-18T10:08:13;-3.00;99.90
20045;DHT22;10183;47.808;9.476;2022-12-18T10:10:46;-2.60;99.90
20045;DHT22;10183;47.808;9.476;2022-12-18T10:13:38;-2.50;99.90
20045;DHT22;10183;47.808;9.476;2022-12-18T10:16:19;-2.40;99.90
20045;DHT22;10183;47.808;9.476;2022-12-18T10:18:57;-2.30;99.90
20045;DHT22;10183;47.808;9.476;2022-12-18T10:25:03;-2.00;99.90
20045;DHT22;10183;47.808;9.476;2022-12-18T10:27:27;-3.30;99.90
20045;DHT22;10183;47.808;9.476;2022-12-18T10:29:54;-2.90;99.90
20045;DHT22;10183;47.808;9.476;2022-12-18T10:32:29;-2.60;99.90
20045;DHT22;10183;47.808;9.476;2022-12-18T10:34:57;-2.20;99.90
20045;DHT22;10183;47.808;9.476;2022-12-18T10:37:26;-2.00;99.90
20045;DHT22;10183;47.808;9.476;2022-12-18T10:40:14;-1.80;99.90
20045;DHT22;10183;47.808;9.476;2022-12-18T10:42:41;-1.70;99.90
20045;DHT22;10183;47.808;9.476;2022-12-18T10:45:14;-1.60;99.90
20045;DHT22;10183;47.808;9.476;2022-12-18T10:47:46;-1.40;99.90
20045;DHT22;10183;47.808;9.476;2022-12-18T10:53:02;-2.40;99.90
20045;DHT22;10183;47.808;9.476;2022-12-18T10:55:38;-2.20;99.90
20045;DHT22;10183;47.808;9.476;2022-12-18T10:58:27;-1.80;99.90
20045;DHT22;10183;47.808;9.476;2022-12-18T11:01:12;-1.30;99.90
20045;DHT22;10183;47.808;9.476;2022-12-18T11:03:45;-1.00;99.90
20045;DHT22;10183;47.808;9.476;2022-12-18T11:06:16;-0.90;99.90
20045;DHT22;10183;47.808;9.476;2022-12-18T11:08:56;-0.70;99.90
20045;DHT22;10183;47.808;9.476;2022-12-18T11:11:23;-0.50;99.90
20045;DHT22;10183;47.808;9.476;2022-12-18T11:14:03;-0.60;99.90
20045;DHT22;10183;47.808;9.476;2022-12-18T11:16:43;-0.50;99.90
20045;DHT22;10183;47.808;9.476;2022-12-18T11:19:38;-0.40;99.90
20045;DHT22;10183;47.808;9.476;2022-12-18T11:22:20;-0.40;99.90
20045;DHT22;10183;47.808;9.476;2022-12-18T11:25:04;-0.50;99.90
20045;DHT22;10183;47.808;9.476;2022-12-18T11:27:32;-0.60;99.90
20045;DHT22;10183;47.808;9.476;2022-12-18T11:30:13;-0.60;99.90
20045;DHT22;10183;47.808;9.476;2022-12-18T11:32:59;-1.10;99.90
20045;DHT22;10183;47.808;9.476;2022-12-18T11:35:58;-2.80;99.90
20045;DHT22;10183;47.808;9.476;2022-12-18T11:38:36;-3.20;99.90
20045;DHT22;10183;47.808;9.476;2022-12-18T11:44:25;-2.70;99.90
20045;DHT22;10183;47.808;9.476;2022-12-18T11:47:20;-2.10;99.90
20045;DHT22;10183;47.808;9.476;2022-12-18T11:49:42;-2.00;99.90
20045;DHT22;10183;47.808;9.476;2022-12-18T11:52:39;-2.30;99.90
20045;DHT22;10183;47.808;9.476;2022-12-18T11:55:14;-1.90;99.90
20045;DHT22;10183;47.808;9.476;2022-12-18T11:58:18;-2.00;99.90
20045;DHT22;10183;47.808;9.476;2022-12-18T12:00:58;-1.30;99.90
20045;DHT22;10183;47.808;9.476;2022-12-18T12:03:39;-0.80;99.90
20045;DHT22;10183;47.808;9.476;2022-12-18T12:06:31;-0.50;99.90
20045;DHT22;10183;47.808;9.476;2022-12-18T12:11:47;0.00;99.90
20045;DHT22;10183;47.808;9.476;2022-12-18T12:17:02;-0.20;99.90
20045;DHT22;10183;47.808;9.476;2022-12-18T12:19:59;-0.10;99.90
20045;DHT22;10183;47.808;9.476;2022-12-18T12:30:31;-0.10;99.90
20045;DHT22;10183;47.808;9.476;2022-12-18T12:39:29;-0.10;99.90
20045;DHT22;10183;47.808;9.476;2022-12-18T12:41:56;-0.10;99.90
20045;DHT22;10183;47.808;9.476;2022-12-18T12:44:44;0.00;99.90
20045;DHT22;10183;47.808;9.476;2022-12-18T12:47:25;0.00;99.90
20045;DHT22;10183;47.808;9.476;2022-12-18T12:49:54;-0.10;99.90
20045;DHT22;10183;47.808;9.476;2022-12-18T12:54:55;-0.70;99.90
20045;DHT22;10183;47.808;9.476;2022-12-18T12:57:30;-2.50;99.90
20045;DHT22;10183;47.808;9.476;2022-12-18T13:00:25;-2.50;99.90
20045;DHT22;10183;47.808;9.476;2022-12-18T13:03:15;-2.10;99.90
20045;DHT22;10183;47.808;9.476;2022-12-18T13:05:59;-2.10;99.90
20045;DHT22;10183;47.808;9.476;2022-12-18T13:08:28;-2.50;99.90
20045;DHT22;10183;47.808;9.476;2022-12-18T13:10:57;-2.60;99.90
20045;DHT22;10183;47.808;9.476;2022-12-18T13:13:50;-2.60;99.90
20045;DHT22;10183;47.808;9.476;2022-12-18T13:16:22;-2.50;99.90
20045;DHT22;10183;47.808;9.476;2022-12-18T13:18:57;-2.40;99.90
20045;DHT22;10183;47.808;9.476;2022-12-18T13:21:27;-2.00;99.90
20045;DHT22;10183;47.808;9.476;2022-12-18T13:23:55;-1.60;99.90
20045;DHT22;10183;47.808;9.476;2022-12-18T13:26:29;-1.80;99.90
20045;DHT22;10183;47.808;9.476;2022-12-18T13:28:58;-1.50;99.90
20045;DHT22;10183;47.808;9.476;2022-12-18T13:34:26;-1.00;99.90
20045;DHT22;10183;47.808;9.476;2022-12-18T13:36:54;-1.00;99.90
20045;DHT22;10183;47.808;9.476;2022-12-18T13:39:23;-1.00;99.90
20045;DHT22;10183;47.808;9.476;2022-12-18T13:45:00;-0.70;99.90
20045;DHT22;10183;47.808;9.476;2022-12-18T13:47:35;-0.50;99.90
20045;DHT22;10183;47.808;9.476;2022-12-18T13:50:18;-0.50;99.90
20045;DHT22;10183;47.808;9.476;2022-12-18T13:52:45;-0.70;99.90
20045;DHT22;10183;47.808;9.476;2022-12-18T13:55:16;-0.90;99.90
20045;DHT22;10183;47.808;9.476;2022-12-18T13:57:44;-0.90;99.90
20045;DHT22;10183;47.808;9.476;2022-12-18T14:02:49;-1.60;99.90
20045;DHT22;10183;47.808;9.476;2022-12-18T14:05:36;-2.10;99.90
20045;DHT22;10183;47.808;9.476;2022-12-18T14:08:10;-1.80;99.90
20045;DHT22;10183;47.808;9.476;2022-12-18T14:10:41;-2.10;99.90
20045;DHT22;10183;47.808;9.476;2022-12-18T14:13:09;-2.30;99.90
20045;DHT22;10183;47.808;9.476;2022-12-18T14:15:41;-2.10;99.90
20045;DHT22;10183;47.808;9.476;2022-12-18T14:18:21;-2.30;99.90
20045;DHT22;10183;47.808;9.476;2022-12-18T14:20:51;-2.20;99.90
20045;DHT22;10183;47.808;9.476;2022-12-18T14:23:33;-2.20;99.90
20045;DHT22;10183;47.808;9.476;2022-12-18T14:26:01;-2.10;99.90
20045;DHT22;10183;47.808;9.476;2022-12-18T14:28:27;-2.00;99.90
20045;DHT22;10183;47.808;9.476;2022-12-18T14:30:54;-2.20;99.90
20045;DHT22;10183;47.808;9.476;2022-12-18T14:33:26;-2.60;99.90
20045;DHT22;10183;47.808;9.476;2022-12-18T14:41:05;-3.40;99.90
20045;DHT22;10183;47.808;9.476;2022-12-18T14:43:33;-3.60;99.90
20045;DHT22;10183;47.808;9.476;2022-12-18T14:46:01;-3.70;99.90
20045;DHT22;10183;47.808;9.476;2022-12-18T14:48:41;-3.70;99.90
20045;DHT22;10183;47.808;9.476;2022-12-18T14:51:18;-3.70;99.90
20045;DHT22;10183;47.808;9.476;2022-12-18T14:53:48;-3.80;99.90
20045;DHT22;10183;47.808;9.476;2022-12-18T14:56:16;-3.70;99.90
20045;DHT22;10183;47.808;9.476;2022-12-18T15:01:30;-3.70;99.90
20045;DHT22;10183;47.808;9.476;2022-12-18T15:03:58;-3.70;99.90
20045;DHT22;10183;47.808;9.476;2022-12-18T15:06:31;-3.80;99.90
20045;DHT22;10183;47.808;9.476;2022-12-18T15:09:00;-3.80;99.90
20045;DHT22;10183;47.808;9.476;2022-12-18T15:11:29;-3.90;99.90
20045;DHT22;10183;47.808;9.476;2022-12-18T15:13:58;-3.90;99.90
20045;DHT22;10183;47.808;9.476;2022-12-18T15:16:25;-3.90;99.90
20045;DHT22;10183;47.808;9.476;2022-12-18T15:18:51;-3.90;99.90
20045;DHT22;10183;47.808;9.476;2022-12-18T15:21:19;-3.80;99.90
20045;DHT22;10183;47.808;9.476;2022-12-18T15:23:50;-3.80;99.90
20045;DHT22;10183;47.808;9.476;2022-12-18T15:26:21;-3.70;99.90
20045;DHT22;10183;47.808;9.476;2022-12-18T15:28:53;-3.60;99.90
20045;DHT22;10183;47.808;9.476;2022-12-18T15:31:29;-3.70;99.90
20045;DHT22;10183;47.808;9.476;2022-12-18T15:36:23;-3.80;99.90
20045;DHT22;10183;47.808;9.476;2022-12-18T15:38:51;-3.70;99.90
20045;DHT22;10183;47.808;9.476;2022-12-18T15:41:19;-3.60;99.90
20045;DHT22;10183;47.808;9.476;2022-12-18T15:43:50;-3.50;99.90
20045;DHT22;10183;47.808;9.476;2022-12-18T15:46:24;-3.50;99.90
20045;DHT22;10183;47.808;9.476;2022-12-18T15:48:53;-3.40;99.90
20045;DHT22;10183;47.808;9.476;2022-12-18T15:51:37;-3.30;99.90
20045;DHT22;10183;47.808;9.476;2022-12-18T15:54:05;-3.30;99.90
20045;DHT22;10183;47.808;9.476;2022-12-18T15:56:34;-3.40;99.90
20045;DHT22;10183;47.808;9.476;2022-12-18T15:59:20;-3.40;99.90
20045;DHT22;10183;47.808;9.476;2022-12-18T16:01:49;-3.40;99.90
20045;DHT22;10183;47.808;9.476;2022-12-18T16:04:18;-3.70;99.90
20045;DHT22;10183;47.808;9.476;2022-12-18T16:06:46;-3.70;99.90
20045;DHT22;10183;47.808;9.476;2022-12-18T16:09:12;-3.80;99.90
20045;DHT22;10183;47.808;9.476;2022-12-18T16:11:41;-3.70;99.90
20045;DHT22;10183;47.808;9.476;2022-12-18T16:16:51;-3.70;99.90
20045;DHT22;10183;47.808;9.476;2022-12-18T16:19:18;-3.90;99.90
20045;DHT22;10183;47.808;9.476;2022-12-18T16:21:46;-3.90;99.90
20045;DHT22;10183;47.808;9.476;2022-12-18T16:26:43;-3.80;99.90
20045;DHT22;10183;47.808;9.476;2022-12-18T16:29:09;-3.80;99.90
20045;DHT22;10183;47.808;9.476;2022-12-18T16:31:36;-3.70;99.90
20045;DHT22;10183;47.808;9.476;2022-12-18T16:34:20;-3.60;99.90
20045;DHT22;10183;47.808;9.476;2022-12-18T16:36:52;-3.70;99.90
20045;DHT22;10183;47.808;9.476;2022-12-18T16:39:19;-3.70;99.90
20045;DHT22;10183;47.808;9.476;2022-12-18T16:41:46;-3.70;99.90
20045;DHT22;10183;47.808;9.476;2022-12-18T16:44:13;-3.70;99.90
20045;DHT22;10183;47.808;9.476;2022-12-18T16:46:40;-3.70;99.90
20045;DHT22;10183;47.808;9.476;2022-12-18T16:49:09;-3.60;99.90
20045;DHT22;10183;47.808;9.476;2022-12-18T16:51:36;-3.70;99.90
20045;DHT22;10183;47.808;9.476;2022-12-18T16:54:02;-3.70;99.90
20045;DHT22;10183;47.808;9.476;2022-12-18T16:56:29;-3.70;99.90
20045;DHT22;10183;47.808;9.476;2022-12-18T16:58:58;-3.80;99.90
20045;DHT22;10183;47.808;9.476;2022-12-18T17:01:25;-3.90;99.90
20045;DHT22;10183;47.808;9.476;2022-12-18T17:04:00;-3.90;99.90
20045;DHT22;10183;47.808;9.476;2022-12-18T17:06:29;-3.90;99.90
20045;DHT22;10183;47.808;9.476;2022-12-18T17:11:24;-3.80;99.90
20045;DHT22;10183;47.808;9.476;2022-12-18T17:13:50;-4.00;99.90
20045;DHT22;10183;47.808;9.476;2022-12-18T17:16:17;-4.00;99.90
20045;DHT22;10183;47.808;9.476;2022-12-18T17:18:43;-4.00;99.90
20045;DHT22;10183;47.808;9.476;2022-12-18T17:21:10;-4.20;99.90